createdAt,value
2022-11-05T00:00:05.851Z,98464.69
2022-11-05T00:02:52.703Z,98474.00
2022-11-05T00:05:38.695Z,98478.47
2022-11-05T00:08:24.981Z,98446.72
2022-11-05T00:10:53.054Z,98479.31
2022-11-05T00:13:39.630Z,98513.22
2022-11-05T00:16:36.560Z,98517.22
2022-11-05T00:19:09.206Z,98518.88
2022-11-05T00:21:55.842Z,98524.19
2022-11-05T00:24:42.125Z,98521.38
2022-11-05T00:27:10.487Z,98543.00
2022-11-05T00:29:38.687Z,98525.88
2022-11-05T00:32:06.636Z,98531.84
2022-11-05T00:34:36.015Z,98526.69
2022-11-05T00:37:03.874Z,98509.41
2022-11-05T00:39:33.348Z,98511.91
2022-11-05T00:42:18.586Z,98526.84
2022-11-05T00:45:05.028Z,98484.34
2022-11-05T00:47:52.043Z,98478.31
2022-11-05T00:50:22.929Z,98492.81
2022-11-05T00:52:58.266Z,98486.00
2022-11-05T00:55:33.326Z,98495.47
2022-11-05T00:58:02.075Z,98507.59
2022-11-05T01:00:31.836Z,98518.88
2022-11-05T01:03:01.410Z,98513.59
2022-11-05T01:05:31.706Z,98552.47
2022-11-05T01:07:59.544Z,98579.22
2022-11-05T01:10:28.442Z,98560.13
2022-11-05T01:12:56.617Z,98559.59
2022-11-05T01:15:24.801Z,98562.78
2022-11-05T01:17:53.409Z,98576.72
2022-11-05T01:20:21.519Z,98570.72
2022-11-05T01:22:50.785Z,98554.13
2022-11-05T01:25:18.737Z,98566.25
2022-11-05T01:27:46.914Z,98548.13
2022-11-05T01:30:15.510Z,98554.28
2022-11-05T01:32:43.590Z,98572.41
2022-11-05T01:35:18.432Z,98566.25
2022-11-05T01:37:46.775Z,98588.00
2022-11-05T01:40:18.428Z,98576.56
2022-11-05T01:42:46.396Z,98590.41
2022-11-05T01:45:18.805Z,98578.38
2022-11-05T01:48:07.655Z,98581.88
2022-11-05T01:50:50.691Z,98546.16
2022-11-05T01:53:25.679Z,98505.63
2022-11-05T01:56:00.326Z,98510.94
2022-11-05T01:58:33.132Z,98484.03
2022-11-05T02:01:01.325Z,98473.72
2022-11-05T02:03:30.294Z,98497.97
2022-11-05T02:06:01.470Z,98528.06
2022-11-05T02:08:47.551Z,98517.06
2022-11-05T02:11:19.472Z,98498.81
2022-11-05T02:13:48.354Z,98506.47
2022-11-05T02:16:29.966Z,98496.31
2022-11-05T02:19:05.958Z,98473.72
2022-11-05T02:22:00.942Z,98452.94
2022-11-05T02:25:00.711Z,98472.75
2022-11-05T02:27:57.742Z,98446.13
2022-11-05T02:30:33.460Z,98428.84
2022-11-05T02:33:32.138Z,98435.81
2022-11-05T02:36:19.238Z,98432.19
2022-11-05T02:38:56.267Z,98416.88
2022-11-05T02:41:31.393Z,98414.22
2022-11-05T02:44:11.096Z,98417.56
2022-11-05T02:46:47.600Z,98462.41
2022-11-05T02:49:28.077Z,98470.25
2022-11-05T02:51:58.472Z,98458.09
2022-11-05T02:54:30.478Z,98444.44
2022-11-05T02:57:00.678Z,98469.41
2022-11-05T02:59:28.432Z,98479.88
2022-11-05T03:01:59.927Z,98456.41
2022-11-05T03:04:28.546Z,98462.41
2022-11-05T03:07:13.228Z,98460.06
2022-11-05T03:10:04.670Z,98431.34
2022-11-05T03:12:38.055Z,98419.38
2022-11-05T03:15:17.653Z,98420.22
2022-11-05T03:17:59.090Z,98402.94
2022-11-05T03:20:35.351Z,98400.97
2022-11-05T03:23:24.745Z,98392.50
2022-11-05T03:25:57.424Z,98377.03
2022-11-05T03:28:29.073Z,98381.38
2022-11-05T03:30:59.174Z,98382.03
2022-11-05T03:33:32.189Z,98389.84
2022-11-05T03:36:06.274Z,98411.56
2022-11-05T03:38:37.688Z,98434.53
2022-11-05T03:41:09.257Z,98442.16
2022-11-05T03:43:42.444Z,98456.16
2022-11-05T03:46:13.362Z,98493.50
2022-11-05T03:48:48.489Z,98506.31
2022-11-05T03:51:26.014Z,98492.34
2022-11-05T03:53:58.915Z,98492.50
2022-11-05T03:56:31.946Z,98489.03
2022-11-05T03:59:03.336Z,98464.09
2022-11-05T04:01:32.490Z,98481.38
2022-11-05T04:04:01.818Z,98447.63
2022-11-05T04:06:47.111Z,98456.25
2022-11-05T04:09:32.479Z,98492.34
2022-11-05T04:12:17.890Z,98508.81
2022-11-05T04:14:46.110Z,98502.66
2022-11-05T04:17:12.992Z,98488.03
2022-11-05T04:20:01.860Z,98463.78
2022-11-05T04:22:49.711Z,98486.53
2022-11-05T04:25:19.099Z,98501.00
2022-11-05T04:27:48.389Z,98496.69
2022-11-05T04:30:20.019Z,98514.09
2022-11-05T04:32:58.751Z,98530.56
2022-11-05T04:35:28.933Z,98532.22
2022-11-05T04:37:57.112Z,98514.25
2022-11-05T04:40:25.053Z,98552.00
2022-11-05T04:42:55.283Z,98526.91
2022-11-05T04:45:23.857Z,98526.09
2022-11-05T04:47:51.725Z,98542.53
2022-11-05T04:50:19.708Z,98558.81
2022-11-05T04:52:48.884Z,98550.03
2022-11-05T04:55:16.946Z,98529.41
2022-11-05T04:57:45.437Z,98521.59
2022-11-05T05:00:13.912Z,98507.97
2022-11-05T05:02:41.828Z,98501.97
2022-11-05T05:05:09.775Z,98483.72
2022-11-05T05:07:37.678Z,98481.06
2022-11-05T05:10:09.112Z,98498.50
2022-11-05T05:12:37.067Z,98495.69
2022-11-05T05:15:05.739Z,98482.06
2022-11-05T05:17:34.183Z,98488.72
2022-11-05T05:20:19.735Z,98493.34
2022-11-05T05:22:53.139Z,98485.69
2022-11-05T05:25:23.149Z,98506.00
2022-11-05T05:27:51.185Z,98505.16
2022-11-05T05:30:19.211Z,98511.31
2022-11-05T05:32:47.309Z,98497.34
2022-11-05T05:35:15.381Z,98507.66
2022-11-05T05:37:44.301Z,98492.81
2022-11-05T05:40:12.680Z,98517.13
2022-11-05T05:42:43.541Z,98531.91
2022-11-05T05:45:12.610Z,98535.56
2022-11-05T05:47:40.458Z,98512.97
2022-11-05T05:50:08.908Z,98510.31
2022-11-05T05:52:36.862Z,98510.31
2022-11-05T05:55:05.029Z,98500.69
2022-11-05T05:57:32.962Z,98495.69
2022-11-05T06:00:02.309Z,98480.22
2022-11-05T06:02:31.535Z,98494.84
2022-11-05T06:05:01.029Z,98490.38
2022-11-05T06:07:31.862Z,98509.31
2022-11-05T06:10:04.191Z,98499.03
2022-11-05T06:12:32.244Z,98508.50
2022-11-05T06:15:00.873Z,98475.75
2022-11-05T06:17:30.187Z,98478.41
2022-11-05T06:19:57.990Z,98461.13
2022-11-05T06:22:25.880Z,98430.72
2022-11-05T06:24:53.771Z,98434.38
2022-11-05T06:27:21.664Z,98418.91
2022-11-05T06:29:49.400Z,98435.19
2022-11-05T06:32:17.235Z,98436.75
2022-11-05T06:34:46.623Z,98429.91
2022-11-05T06:37:14.494Z,98417.94
2022-11-05T06:39:42.429Z,98408.47
2022-11-05T06:42:19.105Z,98433.53
2022-11-05T06:44:48.194Z,98435.06
2022-11-05T06:47:16.080Z,98399.00
2022-11-05T06:49:43.982Z,98410.97
2022-11-05T06:52:14.218Z,98430.72
2022-11-05T06:54:42.825Z,98412.63
2022-11-05T06:57:12.365Z,98434.38
2022-11-05T06:59:40.850Z,98456.66
2022-11-05T07:02:12.675Z,98464.47
2022-11-05T07:04:40.562Z,98473.94
2022-11-05T07:07:08.330Z,98449.84
2022-11-05T07:09:40.634Z,98440.22
2022-11-05T07:12:08.849Z,98466.28
2022-11-05T07:14:36.780Z,98442.88
2022-11-05T07:17:04.682Z,98454.84
2022-11-05T07:19:32.553Z,98459.16
2022-11-05T07:22:00.535Z,98476.44
2022-11-05T07:24:28.352Z,98475.75
2022-11-05T07:26:57.750Z,98434.22
2022-11-05T07:29:25.583Z,98422.25
2022-11-05T07:31:53.354Z,98424.75
2022-11-05T07:34:21.560Z,98400.34
2022-11-05T07:36:49.754Z,98424.59
2022-11-05T07:39:17.654Z,98413.31
2022-11-05T07:41:45.528Z,98416.78
2022-11-05T07:44:17.547Z,98430.72
2022-11-05T07:46:45.583Z,98453.88
2022-11-05T07:49:13.433Z,98483.09
2022-11-05T07:51:41.418Z,98509.19
2022-11-05T07:54:09.595Z,98527.28
2022-11-05T07:56:37.767Z,98488.72
2022-11-05T07:59:06.231Z,98521.16
2022-11-05T08:01:35.806Z,98522.97
2022-11-05T08:04:04.335Z,98516.81
2022-11-05T08:06:32.809Z,98508.19
2022-11-05T08:09:00.939Z,98478.78
2022-11-05T08:11:29.016Z,98512.34
2022-11-05T08:13:57.026Z,98527.13
2022-11-05T08:16:24.945Z,98516.97
2022-11-05T08:18:54.316Z,98527.97
2022-11-05T08:21:22.128Z,98543.59
2022-11-05T08:23:49.936Z,98545.13
2022-11-05T08:26:17.933Z,98525.47
2022-11-05T08:28:45.765Z,98524.63
2022-11-05T08:31:15.442Z,98503.88
2022-11-05T08:33:43.458Z,98521.16
2022-11-05T08:36:12.775Z,98527.13
2022-11-05T08:38:41.013Z,98524.63
2022-11-05T08:41:08.859Z,98509.84
2022-11-05T08:43:36.921Z,98533.28
2022-11-05T08:46:04.931Z,98533.97
2022-11-05T08:48:33.047Z,98537.59
2022-11-05T08:51:01.763Z,98514.31
2022-11-05T08:53:31.243Z,98518.34
2022-11-05T08:56:00.764Z,98495.06
2022-11-05T08:58:29.165Z,98491.75
2022-11-05T09:01:03.464Z,98507.34
2022-11-05T09:03:32.810Z,98486.59
2022-11-05T09:06:00.761Z,98479.47
2022-11-05T09:08:29.967Z,98499.41
2022-11-05T09:10:57.898Z,98496.75
2022-11-05T09:13:26.444Z,98514.03
2022-11-05T09:15:54.920Z,98482.78
2022-11-05T09:18:22.880Z,98476.13
2022-11-05T09:20:50.765Z,98476.81
2022-11-05T09:23:18.850Z,98505.38
2022-11-05T09:25:48.295Z,98505.53
2022-11-05T09:28:18.273Z,98503.72
2022-11-05T09:30:48.682Z,98489.78
2022-11-05T09:33:18.349Z,98441.59
2022-11-05T09:35:46.786Z,98454.38
2022-11-05T09:38:15.192Z,98474.16
2022-11-05T09:40:48.125Z,98489.94
2022-11-05T09:43:24.081Z,98469.84
2022-11-05T09:45:59.353Z,98469.16
2022-11-05T09:48:32.144Z,98456.88
2022-11-05T09:51:00.771Z,98433.47
2022-11-05T09:53:29.370Z,98441.59
2022-11-05T09:55:59.873Z,98413.00
2022-11-05T09:58:40.054Z,98429.31
2022-11-05T10:01:13.605Z,98395.88
2022-11-05T10:03:46.582Z,98381.94
2022-11-05T10:06:20.646Z,98407.00
2022-11-05T10:08:52.322Z,98386.78
2022-11-05T10:11:25.980Z,98389.75
2022-11-05T10:13:59.957Z,98374.97
2022-11-05T10:16:32.301Z,98360.22
2022-11-05T10:19:06.573Z,98355.22
2022-11-05T10:22:04.380Z,98358.53
2022-11-05T10:24:23.217Z,98344.91
2022-11-05T10:26:53.934Z,98321.84
2022-11-05T10:29:29.462Z,98356.88
2022-11-05T10:31:59.448Z,98354.91
2022-11-05T10:34:34.172Z,98277.16
2022-11-05T10:37:02.385Z,98299.25
2022-11-05T10:39:32.367Z,98275.69
2022-11-05T10:42:12.127Z,98253.28
2022-11-05T10:44:47.768Z,98261.91
2022-11-05T10:47:36.423Z,98218.94
2022-11-05T10:50:06.502Z,98174.84
2022-11-05T10:52:36.884Z,98175.66
2022-11-05T10:55:08.066Z,98128.38
2022-11-05T10:57:38.010Z,98142.13
2022-11-05T11:00:31.249Z,98117.25
2022-11-05T11:03:01.932Z,98103.66
2022-11-05T11:05:33.397Z,98141.44
2022-11-05T11:08:09.765Z,98110.97
2022-11-05T11:10:43.437Z,98129.19
2022-11-05T11:13:20.620Z,98087.75
2022-11-05T11:15:51.109Z,98081.94
2022-11-05T11:18:27.670Z,98085.44
2022-11-05T11:21:07.295Z,98065.66
2022-11-05T11:23:43.467Z,98045.78
2022-11-05T11:26:12.800Z,98051.06
2022-11-05T11:28:45.813Z,98049.09
2022-11-05T11:31:17.626Z,98014.09
2022-11-05T11:33:49.099Z,98034.34
2022-11-05T11:36:19.559Z,98025.19
2022-11-05T11:38:48.121Z,98024.88
2022-11-05T11:41:29.149Z,98037.97
2022-11-05T11:44:01.030Z,98055.22
2022-11-05T11:46:33.678Z,98050.91
2022-11-05T11:49:02.324Z,98066.38
2022-11-05T11:51:33.523Z,98065.53
2022-11-05T11:54:02.468Z,98082.78
2022-11-05T11:56:32.923Z,98089.72
2022-11-05T11:59:07.009Z,98093.06
2022-11-05T12:02:17.955Z,98079.28
2022-11-05T12:05:09.792Z,98094.72
2022-11-05T12:07:56.507Z,98079.13
2022-11-05T12:10:46.660Z,98096.69
2022-11-05T12:14:04.768Z,98079.44
2022-11-05T12:17:05.613Z,98073.47
2022-11-05T12:19:50.656Z,98059.53
2022-11-05T12:22:27.313Z,98081.28
2022-11-05T12:25:20.230Z,98063.00
2022-11-05T12:27:59.473Z,98048.28
2022-11-05T12:30:30.450Z,98046.75
2022-11-05T12:33:25.681Z,98054.41
2022-11-05T12:36:09.603Z,98063.00
2022-11-05T12:39:04.378Z,98037.13
2022-11-05T12:41:36.242Z,98043.25
2022-11-05T12:44:24.256Z,98042.31
2022-11-05T12:47:04.405Z,98084.75
2022-11-05T12:49:48.842Z,98110.44
2022-11-05T12:52:36.759Z,98121.72
2022-11-05T12:55:10.935Z,98113.09
2022-11-05T12:57:43.207Z,98132.84
2022-11-05T13:00:20.501Z,98141.44
2022-11-05T13:02:53.847Z,98145.75
2022-11-05T13:05:29.332Z,98138.13
2022-11-05T13:08:01.829Z,98120.56
2022-11-05T13:10:35.719Z,98128.69
2022-11-05T13:13:07.815Z,98140.09
2022-11-05T13:15:41.073Z,98141.44
2022-11-05T13:18:16.175Z,98153.72
2022-11-05T13:20:50.687Z,98119.75
2022-11-05T13:23:26.144Z,98114.09
2022-11-05T13:26:00.501Z,98123.69
2022-11-05T13:28:39.637Z,98105.31
2022-11-05T13:31:13.479Z,98083.09
2022-11-05T13:33:46.352Z,98075.44
2022-11-05T13:36:35.836Z,98085.75
2022-11-05T13:39:13.101Z,98090.72
2022-11-05T13:41:56.016Z,98099.50
2022-11-05T13:44:58.410Z,98120.88
2022-11-05T13:47:54.003Z,98139.94
2022-11-05T13:50:49.082Z,98133.00
2022-11-05T13:53:55.233Z,98130.34
2022-11-05T13:56:39.254Z,98129.66
2022-11-05T13:59:33.183Z,98128.69
2022-11-05T14:02:04.504Z,98114.25
2022-11-05T14:04:35.668Z,98098.66
2022-11-05T14:07:10.627Z,98095.03
2022-11-05T14:09:40.744Z,98108.13
2022-11-05T14:12:20.219Z,98116.91
2022-11-05T14:14:58.647Z,98094.34
2022-11-05T14:17:34.611Z,98083.91
2022-11-05T14:20:25.290Z,98085.59
2022-11-05T14:22:54.023Z,98070.38
2022-11-05T14:26:00.846Z,98105.63
2022-11-05T14:28:42.074Z,98092.69
2022-11-05T14:31:54.293Z,98083.38
2022-11-05T14:34:24.129Z,98088.38
2022-11-05T14:37:22.123Z,98096.34
2022-11-05T14:39:50.608Z,98076.25
2022-11-05T14:42:23.340Z,98076.41
2022-11-05T14:45:04.594Z,98083.38
2022-11-05T14:47:36.942Z,98052.91
2022-11-05T14:50:13.819Z,98069.63
2022-11-05T14:52:51.440Z,98091.03
2022-11-05T14:55:28.540Z,98076.56
2022-11-05T14:58:06.159Z,98065.44
2022-11-05T15:00:49.289Z,98068.09
2022-11-05T15:03:47.181Z,98087.84
2022-11-05T15:06:26.329Z,98058.47
2022-11-05T15:09:16.853Z,98049.84
2022-11-05T15:11:53.359Z,98066.13
2022-11-05T15:14:25.457Z,98067.78
2022-11-05T15:16:55.905Z,98080.06
2022-11-05T15:19:30.497Z,98066.13
2022-11-05T15:22:00.599Z,98067.09
2022-11-05T15:24:29.404Z,98086.03
2022-11-05T15:27:05.851Z,98096.50
2022-11-05T15:29:34.633Z,98080.06
2022-11-05T15:32:02.996Z,98102.63
2022-11-05T15:34:36.273Z,98112.75
2022-11-05T15:37:22.006Z,98106.63
2022-11-05T15:39:51.397Z,98103.44
2022-11-05T15:42:22.187Z,98133.47
2022-11-05T15:44:52.630Z,98124.84
2022-11-05T15:47:23.007Z,98118.19
2022-11-05T15:49:56.965Z,98124.84
2022-11-05T15:52:34.738Z,98125.47
2022-11-05T15:55:18.031Z,98167.94
2022-11-05T15:57:51.023Z,98165.44
2022-11-05T16:00:22.530Z,98164.63
2022-11-05T16:02:56.347Z,98162.66
2022-11-05T16:05:27.887Z,98195.47
2022-11-05T16:07:59.390Z,98219.72
2022-11-05T16:10:30.407Z,98224.03
2022-11-05T16:12:58.278Z,98240.31
2022-11-05T16:15:33.047Z,98235.31
2022-11-05T16:18:01.735Z,98266.50
2022-11-05T16:20:33.620Z,98280.09
2022-11-05T16:23:04.187Z,98238.63
2022-11-05T16:25:40.525Z,98236.13
2022-11-05T16:28:22.663Z,98231.97
2022-11-05T16:30:55.924Z,98230.00
2022-11-05T16:33:24.730Z,98245.91
2022-11-05T16:35:54.726Z,98231.97
2022-11-05T16:38:23.920Z,98211.38
2022-11-05T16:40:52.118Z,98220.00
2022-11-05T16:43:23.328Z,98176.88
2022-11-05T16:45:54.833Z,98177.88
2022-11-05T16:48:22.968Z,98140.56
2022-11-05T16:50:51.246Z,98098.19
2022-11-05T16:53:21.789Z,98083.81
2022-11-05T16:55:50.002Z,98025.31
2022-11-05T16:58:21.786Z,98015.56
2022-11-05T17:00:51.249Z,97996.81
2022-11-05T17:03:19.735Z,97982.22
2022-11-05T17:05:47.767Z,97980.53
2022-11-05T17:08:15.973Z,97954.03
2022-11-05T17:10:45.635Z,97907.50
2022-11-05T17:13:16.383Z,97876.56
2022-11-05T17:15:45.989Z,97823.22
2022-11-05T17:18:18.461Z,97757.31
2022-11-05T17:20:49.640Z,97771.59
2022-11-05T17:23:20.145Z,97769.94
2022-11-05T17:25:52.029Z,97828.50
2022-11-05T17:28:20.705Z,97831.97
2022-11-05T17:30:52.951Z,97882.78
2022-11-05T17:33:23.250Z,97896.72
2022-11-05T17:35:52.225Z,97887.13
2022-11-05T17:38:20.862Z,97876.69
2022-11-05T17:40:50.951Z,97785.47
2022-11-05T17:43:20.010Z,97785.31
2022-11-05T17:45:49.740Z,97758.00
2022-11-05T17:48:18.113Z,97717.63
2022-11-05T17:50:47.793Z,97658.59
2022-11-05T17:53:17.301Z,97663.38
2022-11-05T17:55:47.170Z,97683.22
2022-11-05T17:58:17.291Z,97681.56
2022-11-05T18:00:46.259Z,97652.44
2022-11-05T18:03:15.015Z,97564.34
2022-11-05T18:05:44.022Z,97617.91
2022-11-05T18:08:12.524Z,97604.16
2022-11-05T18:10:41.875Z,97578.72
2022-11-05T18:13:09.949Z,97565.66
2022-11-05T18:15:41.266Z,97540.88
2022-11-05T18:18:10.963Z,97591.44
2022-11-05T18:20:39.122Z,97597.22
2022-11-05T18:23:07.032Z,97583.34
2022-11-05T18:25:35.272Z,97561.19
2022-11-05T18:28:03.122Z,97526.13
2022-11-05T18:30:30.942Z,97503.00
2022-11-05T18:33:00.769Z,97518.53
2022-11-05T18:35:28.878Z,97537.41
2022-11-05T18:37:57.013Z,97574.25
2022-11-05T18:40:25.357Z,97583.69
2022-11-05T18:42:53.152Z,97570.78
2022-11-05T18:45:25.547Z,97596.72
2022-11-05T18:47:56.807Z,97603.66
2022-11-05T18:50:26.119Z,97625.00
2022-11-05T18:52:53.916Z,97641.34
2022-11-05T18:55:22.318Z,97625.81
2022-11-05T18:57:50.387Z,97601.84
2022-11-05T19:00:18.554Z,97582.03
2022-11-05T19:02:46.627Z,97595.06
2022-11-05T19:05:28.572Z,97600.03
2022-11-05T19:07:58.952Z,97623.34
2022-11-05T19:10:27.403Z,97622.50
2022-11-05T19:12:56.390Z,97621.19
2022-11-05T19:15:24.424Z,97640.53
2022-11-05T19:17:52.320Z,97624.31
2022-11-05T19:20:20.308Z,97586.47
2022-11-05T19:22:48.310Z,97567.63
2022-11-05T19:25:17.853Z,97499.72
2022-11-05T19:27:45.747Z,97516.88
2022-11-05T19:30:14.044Z,97525.47
2022-11-05T19:32:41.898Z,97523.81
2022-11-05T19:35:10.218Z,97514.56
2022-11-05T19:37:38.609Z,97530.75
2022-11-05T19:40:08.167Z,97509.44
2022-11-05T19:42:37.698Z,97530.44
2022-11-05T19:45:30.062Z,97544.63
2022-11-05T19:47:55.056Z,97550.47
2022-11-05T19:50:23.145Z,97596.88
2022-11-05T19:52:51.251Z,97587.31
2022-11-05T19:55:19.096Z,97616.41
2022-11-05T19:57:48.623Z,97627.97
2022-11-05T20:00:17.075Z,97636.22
2022-11-05T20:02:46.417Z,97645.00
2022-11-05T20:05:15.565Z,97626.31
2022-11-05T20:07:46.962Z,97632.25
2022-11-05T20:10:18.020Z,97644.47
2022-11-05T20:12:46.033Z,97671.81
2022-11-05T20:15:15.316Z,97676.94
2022-11-05T20:17:43.158Z,97642.34
2022-11-05T20:20:12.034Z,97622.31
2022-11-05T20:22:40.172Z,97634.91
2022-11-05T20:25:09.142Z,97614.75
2022-11-05T20:27:37.388Z,97597.88
2022-11-05T20:30:07.264Z,97579.69
2022-11-05T20:32:36.588Z,97580.69
2022-11-05T20:35:04.972Z,97542.97
2022-11-05T20:37:32.875Z,97529.09
2022-11-05T20:40:01.855Z,97487.31
2022-11-05T20:42:29.648Z,97496.41
2022-11-05T20:44:57.612Z,97500.69
2022-11-05T20:47:25.563Z,97502.50
2022-11-05T20:49:55.605Z,97517.22
2022-11-05T20:52:24.142Z,97508.63
2022-11-05T20:54:52.219Z,97551.56
2022-11-05T20:57:21.028Z,97543.81
2022-11-05T20:59:48.905Z,97564.50
2022-11-05T21:02:17.172Z,97549.91
2022-11-05T21:04:45.969Z,97552.41
2022-11-05T21:07:16.704Z,97544.78
2022-11-05T21:09:44.501Z,97542.97
2022-11-05T21:12:12.496Z,97544.97
2022-11-05T21:14:42.516Z,97501.69
2022-11-05T21:17:13.070Z,97508.63
2022-11-05T21:19:43.592Z,97488.13
2022-11-05T21:22:15.173Z,97465.16
2022-11-05T21:24:44.531Z,97448.81
2022-11-05T21:27:12.600Z,97429.47
2022-11-05T21:29:40.390Z,97405.88
2022-11-05T21:32:08.744Z,97410.97
2022-11-05T21:34:36.753Z,97400.59
2022-11-05T21:37:05.735Z,97426.50
2022-11-05T21:39:34.854Z,97406.84
2022-11-05T21:42:04.424Z,97398.94
2022-11-05T21:44:32.176Z,97398.09
2022-11-05T21:47:00.258Z,97365.59
2022-11-05T21:49:28.567Z,97351.72
2022-11-05T21:52:13.943Z,97369.88
2022-11-05T21:54:59.285Z,97364.75
2022-11-05T21:57:46.203Z,97354.53
2022-11-05T22:00:15.770Z,97343.16
2022-11-05T22:02:43.780Z,97338.34
2022-11-05T22:05:11.837Z,97292.78
2022-11-05T22:07:40.539Z,97264.06
2022-11-05T22:10:15.804Z,97317.03
2022-11-05T22:12:46.561Z,97309.78
2022-11-05T22:15:15.164Z,97320.16
2022-11-05T22:17:46.872Z,97344.47
2022-11-05T22:20:16.484Z,97332.25
2022-11-05T22:22:44.640Z,97355.34
2022-11-05T22:25:12.935Z,97375.81
2022-11-05T22:27:40.784Z,97370.69
2022-11-05T22:30:11.084Z,97386.22
2022-11-05T22:32:39.007Z,97401.56
2022-11-05T22:35:08.352Z,97418.06
2022-11-05T22:37:36.190Z,97430.28
2022-11-05T22:40:04.130Z,97430.97
2022-11-05T22:42:32.146Z,97428.31
2022-11-05T22:45:00.101Z,97430.63
2022-11-05T22:47:29.356Z,97490.09
2022-11-05T22:49:58.262Z,97494.25
2022-11-05T22:52:26.263Z,97545.78
2022-11-05T22:54:54.326Z,97577.69
2022-11-05T22:57:22.159Z,97592.91
2022-11-05T22:59:50.218Z,97642.81
2022-11-05T23:02:18.358Z,97682.50
2022-11-05T23:04:48.948Z,97679.72
2022-11-05T23:07:34.124Z,97695.44
2022-11-05T23:10:19.682Z,97722.88
2022-11-05T23:12:47.658Z,97739.94
2022-11-05T23:15:48.397Z,97749.34
2022-11-05T23:18:34.073Z,97792.69
2022-11-05T23:21:23.171Z,97808.94
2022-11-05T23:24:06.471Z,97815.72
2022-11-05T23:26:52.439Z,97829.63
2022-11-05T23:29:22.357Z,97839.06
2022-11-05T23:32:08.566Z,97853.63
2022-11-05T23:34:36.535Z,97871.81
2022-11-05T23:37:23.912Z,97863.22
2022-11-05T23:39:52.538Z,97885.72
2022-11-05T23:42:37.747Z,97878.59
2022-11-05T23:45:24.380Z,97892.34
2022-11-05T23:48:09.956Z,97888.88
2022-11-05T23:50:40.019Z,97918.34
2022-11-05T23:53:10.481Z,97912.53
2022-11-05T23:55:38.351Z,97897.66
2022-11-05T23:58:07.051Z,97922.66
